PWSweather.com
Personal Weather Stations
Station Observations
KALGULF1
Peninsula Golf Club, Gulf Shores, AL 36542

Peninsula Golf ClubGulf Shores, AL 36542

Lat: 30.25, Lon: -87.79

Elevation: 6

Station Type: David Vantage Pro II

http://gswx.net

Latest ConditionsUpdated 8:00:20 AM CST Sunday, Jan 22, 2017
Currently Today's Max Today's Min Today's Average
Temperature 68.6°F20.3°C 71.1°F21.7°C 68.6°F20.3°C 70.1°F21.2°C
Dew Point 67.4°F19.7°C 69.9°F21.1°C 67.4°F19.7°C 68.9°F20.5°C
Winds Calm Calm 8.4 mph S13.5 kmh S - 2.5 mph 4.0 kmh
Wind Gusts -- 15.0 mph24.1 kmh - -
Humidity 96% 96% 96% 96%
Pressure 29.42 in996.3 mb 29.52 in999.7 mb 29.42 in996.3 mb -
Hour Temp Dew Point Humidity Winds Wind Gusts Pressure Precip Precip Rate Daily Precip Total
08:00 AM 68.6°F20.3°C 67.4°F19.7°C 96% Calm Calm -- 29.42 in996.3 mb - 0.00 in0.0 mm 0.00 in0.0 mm
07:45 AM 68.9°F20.5°C 67.7°F19.8°C 96% Calm Calm -- 29.43 in996.6 mb - 0.00 in0.0 mm 0.00 in0.0 mm
07:30 AM 69.3°F20.7°C 68.1°F20.1°C 96% Calm Calm -- 29.44 in997.0 mb - 0.00 in0.0 mm 0.00 in0.0 mm
07:15 AM 69.3°F20.7°C 68.1°F20.1°C 96% Calm Calm -- 29.44 in997.0 mb - 0.00 in0.0 mm 0.00 in0.0 mm
07:00 AM 69.3°F20.7°C 68.1°F20.1°C 96% Calm Calm -- 29.46 in997.6 mb - 0.00 in0.0 mm 0.00 in0.0 mm
06:45 AM 69.3°F20.7°C 68.1°F20.1°C 96% 0.2 mph SSW0.3 kmh SSW 5.0 mph8.0 kmh 29.47 in998.0 mb - 0.00 in0.0 mm 0.00 in0.0 mm
06:30 AM 69.3°F20.7°C 68.1°F20.1°C 96% 0.8 mph W1.3 kmh W 1.0 mph1.6 kmh 29.48 in998.3 mb - 0.00 in0.0 mm 0.00 in0.0 mm
06:15 AM 69.3°F20.7°C 68.1°F20.1°C 96% Calm Calm -- 29.47 in998.0 mb - 0.00 in0.0 mm 0.00 in0.0 mm
06:00 AM 69.4°F20.8°C 68.2°F20.1°C 96% Calm Calm -- 29.48 in998.3 mb - 0.00 in0.0 mm 0.00 in0.0 mm
05:45 AM 69.8°F21.0°C 68.6°F20.3°C 96% 2.7 mph SW4.3 kmh SW 7.0 mph11.3 kmh 29.49 in998.6 mb - 0.00 in0.0 mm 0.00 in0.0 mm
05:30 AM 69.9°F21.1°C 68.7°F20.4°C 96% 0.1 mph W0.2 kmh W 2.0 mph3.2 kmh 29.48 in998.3 mb - 0.00 in0.0 mm 0.00 in0.0 mm
05:15 AM 70.1°F21.2°C 68.9°F20.5°C 96% 2.2 mph SW3.5 kmh SW 8.0 mph12.9 kmh 29.48 in998.3 mb - 0.00 in0.0 mm 0.00 in0.0 mm
05:00 AM 70.4°F21.3°C 69.2°F20.7°C 96% 2.3 mph S3.7 kmh S 3.0 mph4.8 kmh 29.49 in998.6 mb - 0.00 in0.0 mm 0.00 in0.0 mm
04:45 AM 70.4°F21.3°C 69.2°F20.7°C 96% 1.4 mph S2.3 kmh S 8.0 mph12.9 kmh 29.49 in998.6 mb - 0.00 in0.0 mm 0.00 in0.0 mm
04:30 AM 70.3°F21.3°C 69.1°F20.6°C 96% 1.5 mph SSW2.4 kmh SSW 7.0 mph11.3 kmh 29.49 in998.6 mb - 0.00 in0.0 mm 0.00 in0.0 mm
04:15 AM 70.3°F21.3°C 69.1°F20.6°C 96% 0.4 mph SW0.6 kmh SW 4.0 mph6.4 kmh 29.49 in998.6 mb - 0.00 in0.0 mm 0.00 in0.0 mm
04:00 AM 70.3°F21.3°C 69.1°F20.6°C 96% 2.7 mph S4.3 kmh S 7.0 mph11.3 kmh 29.49 in998.6 mb - 0.00 in0.0 mm 0.00 in0.0 mm
03:45 AM 70.6°F21.4°C 69.4°F20.8°C 96% 3.2 mph SSW5.1 kmh SSW 8.0 mph12.9 kmh 29.50 in999.0 mb - 0.00 in0.0 mm 0.00 in0.0 mm
03:30 AM 70.6°F21.4°C 69.4°F20.8°C 96% 3.5 mph SW5.6 kmh SW 8.0 mph12.9 kmh 29.49 in998.6 mb - 0.00 in0.0 mm 0.00 in0.0 mm
03:15 AM 70.3°F21.3°C 69.1°F20.6°C 96% 1.6 mph S2.6 kmh S 5.0 mph8.0 kmh 29.49 in998.6 mb - 0.00 in0.0 mm 0.00 in0.0 mm
03:00 AM 70.3°F21.3°C 69.1°F20.6°C 96% 1.9 mph SSW3.1 kmh SSW 8.0 mph12.9 kmh 29.49 in998.6 mb - 0.00 in0.0 mm 0.00 in0.0 mm
02:45 AM 70.4°F21.3°C 69.2°F20.7°C 96% 2.9 mph SSW4.7 kmh SSW 12.0 mph19.3 kmh 29.50 in999.0 mb - 0.00 in0.0 mm 0.00 in0.0 mm
02:30 AM 70.3°F21.3°C 69.1°F20.6°C 96% 1.3 mph SSW2.1 kmh SSW 8.0 mph12.9 kmh 29.50 in999.0 mb - 0.00 in0.0 mm 0.00 in0.0 mm
02:15 AM 70.4°F21.3°C 69.2°F20.7°C 96% 1.9 mph S3.1 kmh S 10.0 mph16.1 kmh 29.49 in998.6 mb - 0.00 in0.0 mm 0.00 in0.0 mm
02:00 AM 70.6°F21.4°C 69.4°F20.8°C 96% 1.4 mph S2.3 kmh S 6.0 mph9.7 kmh 29.50 in999.0 mb - 0.00 in0.0 mm 0.00 in0.0 mm
01:45 AM 70.8°F21.6°C 69.6°F20.9°C 96% 5.4 mph S8.7 kmh S 14.0 mph22.5 kmh 29.51 in999.3 mb - 0.00 in0.0 mm 0.00 in0.0 mm
01:30 AM 70.6°F21.4°C 69.4°F20.8°C 96% 5.2 mph SW8.4 kmh SW 10.0 mph16.1 kmh 29.51 in999.3 mb - 0.00 in0.0 mm 0.00 in0.0 mm
01:15 AM 70.6°F21.4°C 69.4°F20.8°C 96% 5.4 mph S8.7 kmh S 11.0 mph17.7 kmh 29.51 in999.3 mb - 0.00 in0.0 mm 0.00 in0.0 mm
01:00 AM 70.6°F21.4°C 69.4°F20.8°C 96% 6.3 mph S10.1 kmh S 12.0 mph19.3 kmh 29.51 in999.3 mb - 0.00 in0.0 mm 0.00 in0.0 mm
12:45 AM 70.8°F21.6°C 69.6°F20.9°C 96% 7.3 mph S11.7 kmh S 15.0 mph24.1 kmh 29.51 in999.3 mb - 0.00 in0.0 mm 0.00 in0.0 mm
12:30 AM 70.9°F21.6°C 69.7°F20.9°C 96% 8.4 mph S13.5 kmh S 13.0 mph20.9 kmh 29.50 in999.0 mb - 0.00 in0.0 mm 0.00 in0.0 mm
12:15 AM 71.1°F21.7°C 69.9°F21.1°C 96% 7.7 mph SSW12.4 kmh SSW 12.0 mph19.3 kmh 29.51 in999.3 mb - 0.00 in0.0 mm 0.00 in0.0 mm
12:00 AM 70.6°F21.4°C 69.4°F20.8°C 96% 5.2 mph SSW8.4 kmh SSW 9.0 mph14.5 kmh 29.52 in999.7 mb - 0.00 in0.0 mm 0.00 in0.0 mm